sensor_id;sensor_type;location;lat;lon;timestamp;temperature;humidity
21214;DHT22;10764;50.850;2.904;2023-08-07T00:02:02;22.50;56.00
21214;DHT22;10764;50.850;2.904;2023-08-07T00:04:29;23.10;56.30
21214;DHT22;10764;50.850;2.904;2023-08-07T00:06:56;23.10;56.40
21214;DHT22;10764;50.850;2.904;2023-08-07T00:09:23;22.80;56.20
21214;DHT22;10764;50.850;2.904;2023-08-07T00:11:50;23.10;56.50
21214;DHT22;10764;50.850;2.904;2023-08-07T00:14:19;23.10;56.40
21214;DHT22;10764;50.850;2.904;2023-08-07T00:16:46;22.90;56.20
21214;DHT22;10764;50.850;2.904;2023-08-07T00:19:12;22.90;56.20
21214;DHT22;10764;50.850;2.904;2023-08-07T00:21:39;22.70;56.20
21214;DHT22;10764;50.850;2.904;2023-08-07T00:24:06;23.10;56.40
21214;DHT22;10764;50.850;2.904;2023-08-07T00:26:33;23.20;56.40
21214;DHT22;10764;50.850;2.904;2023-08-07T00:29:00;22.70;56.10
21214;DHT22;10764;50.850;2.904;2023-08-07T00:31:27;23.20;56.40
21214;DHT22;10764;50.850;2.904;2023-08-07T00:33:58;23.20;56.30
21214;DHT22;10764;50.850;2.904;2023-08-07T00:36:26;23.30;56.40
21214;DHT22;10764;50.850;2.904;2023-08-07T00:38:55;23.40;56.40
21214;DHT22;10764;50.850;2.904;2023-08-07T00:41:22;23.00;56.00
21214;DHT22;10764;50.850;2.904;2023-08-07T00:43:50;23.00;56.30
21214;DHT22;10764;50.850;2.904;2023-08-07T00:46:17;23.30;56.40
21214;DHT22;10764;50.850;2.904;2023-08-07T00:48:44;22.80;56.20
21214;DHT22;10764;50.850;2.904;2023-08-07T00:51:12;22.50;56.20
21214;DHT22;10764;50.850;2.904;2023-08-07T00:53:39;23.30;56.60
21214;DHT22;10764;50.850;2.904;2023-08-07T00:56:07;22.70;56.20
21214;DHT22;10764;50.850;2.904;2023-08-07T00:58:34;22.70;56.20
21214;DHT22;10764;50.850;2.904;2023-08-07T01:01:02;22.70;56.20
21214;DHT22;10764;50.850;2.904;2023-08-07T01:03:29;22.50;56.10
21214;DHT22;10764;50.850;2.904;2023-08-07T01:05:56;22.90;56.20
21214;DHT22;10764;50.850;2.904;2023-08-07T01:08:24;23.10;55.90
21214;DHT22;10764;50.850;2.904;2023-08-07T01:16:21;23.30;53.70
21214;DHT22;10764;50.850;2.904;2023-08-07T01:18:50;22.70;55.80
21214;DHT22;10764;50.850;2.904;2023-08-07T01:21:18;22.90;55.80
21214;DHT22;10764;50.850;2.904;2023-08-07T01:23:47;23.10;55.90
21214;DHT22;10764;50.850;2.904;2023-08-07T01:26:18;23.20;56.10
21214;DHT22;10764;50.850;2.904;2023-08-07T01:29:06;23.10;56.20
21214;DHT22;10764;50.850;2.904;2023-08-07T01:31:38;23.00;53.50
21214;DHT22;10764;50.850;2.904;2023-08-07T01:34:07;23.20;56.20
21214;DHT22;10764;50.850;2.904;2023-08-07T01:36:39;23.10;56.20
21214;DHT22;10764;50.850;2.904;2023-08-07T01:39:07;22.80;56.00
21214;DHT22;10764;50.850;2.904;2023-08-07T01:41:36;23.00;56.10
21214;DHT22;10764;50.850;2.904;2023-08-07T01:44:03;23.00;56.30
21214;DHT22;10764;50.850;2.904;2023-08-07T01:46:30;22.90;55.60
21214;DHT22;10764;50.850;2.904;2023-08-07T01:48:57;23.30;56.10
21214;DHT22;10764;50.850;2.904;2023-08-07T01:51:24;23.30;56.10
21214;DHT22;10764;50.850;2.904;2023-08-07T01:53:51;22.90;55.90
21214;DHT22;10764;50.850;2.904;2023-08-07T01:56:19;22.60;55.90
21214;DHT22;10764;50.850;2.904;2023-08-07T01:58:46;22.90;56.20
21214;DHT22;10764;50.850;2.904;2023-08-07T02:01:12;23.30;57.10
21214;DHT22;10764;50.850;2.904;2023-08-07T02:03:39;22.30;56.10
21214;DHT22;10764;50.850;2.904;2023-08-07T02:06:06;23.10;56.10
21214;DHT22;10764;50.850;2.904;2023-08-07T02:08:33;22.70;56.00
21214;DHT22;10764;50.850;2.904;2023-08-07T02:11:01;23.00;55.80
21214;DHT22;10764;50.850;2.904;2023-08-07T02:13:28;23.20;56.40
21214;DHT22;10764;50.850;2.904;2023-08-07T02:15:55;22.70;55.80
21214;DHT22;10764;50.850;2.904;2023-08-07T02:18:22;23.00;56.20
21214;DHT22;10764;50.850;2.904;2023-08-07T02:20:51;23.00;56.30
21214;DHT22;10764;50.850;2.904;2023-08-07T02:23:17;23.20;56.70
21214;DHT22;10764;50.850;2.904;2023-08-07T02:25:44;23.00;56.40
21214;DHT22;10764;50.850;2.904;2023-08-07T02:28:13;22.90;56.40
21214;DHT22;10764;50.850;2.904;2023-08-07T02:30:40;23.30;56.60
21214;DHT22;10764;50.850;2.904;2023-08-07T02:33:07;23.00;56.20
21214;DHT22;10764;50.850;2.904;2023-08-07T02:35:33;23.20;56.50
21214;DHT22;10764;50.850;2.904;2023-08-07T02:38:00;22.70;56.30
21214;DHT22;10764;50.850;2.904;2023-08-07T02:40:27;22.60;56.20
21214;DHT22;10764;50.850;2.904;2023-08-07T02:42:54;22.80;56.20
21214;DHT22;10764;50.850;2.904;2023-08-07T02:45:21;22.80;56.10
21214;DHT22;10764;50.850;2.904;2023-08-07T02:47:47;22.80;56.70
21214;DHT22;10764;50.850;2.904;2023-08-07T02:50:14;22.90;56.10
21214;DHT22;10764;50.850;2.904;2023-08-07T02:52:41;23.20;56.30
21214;DHT22;10764;50.850;2.904;2023-08-07T02:55:11;22.80;55.40
21214;DHT22;10764;50.850;2.904;2023-08-07T02:57:38;23.00;56.40
21214;DHT22;10764;50.850;2.904;2023-08-07T03:00:05;23.10;56.30
21214;DHT22;10764;50.850;2.904;2023-08-07T03:02:33;23.20;55.50
21214;DHT22;10764;50.850;2.904;2023-08-07T03:04:59;23.10;56.50
21214;DHT22;10764;50.850;2.904;2023-08-07T03:07:26;23.20;56.50
21214;DHT22;10764;50.850;2.904;2023-08-07T03:09:53;23.50;56.60
21214;DHT22;10764;50.850;2.904;2023-08-07T03:12:20;23.30;56.70
21214;DHT22;10764;50.850;2.904;2023-08-07T03:14:47;23.00;56.30
21214;DHT22;10764;50.850;2.904;2023-08-07T03:17:14;23.40;56.70
21214;DHT22;10764;50.850;2.904;2023-08-07T03:19:42;22.80;56.30
21214;DHT22;10764;50.850;2.904;2023-08-07T03:22:11;23.00;56.60
21214;DHT22;10764;50.850;2.904;2023-08-07T03:24:38;23.10;56.40
21214;DHT22;10764;50.850;2.904;2023-08-07T03:27:06;23.20;56.50
21214;DHT22;10764;50.850;2.904;2023-08-07T03:29:32;23.00;56.50
21214;DHT22;10764;50.850;2.904;2023-08-07T03:31:59;23.00;56.40
21214;DHT22;10764;50.850;2.904;2023-08-07T03:34:26;22.90;56.50
21214;DHT22;10764;50.850;2.904;2023-08-07T03:36:53;23.00;56.60
21214;DHT22;10764;50.850;2.904;2023-08-07T03:39:20;23.10;57.10
21214;DHT22;10764;50.850;2.904;2023-08-07T03:41:48;22.70;56.30
21214;DHT22;10764;50.850;2.904;2023-08-07T03:44:16;22.80;56.30
21214;DHT22;10764;50.850;2.904;2023-08-07T03:46:43;23.00;56.30
21214;DHT22;10764;50.850;2.904;2023-08-07T03:49:11;22.80;56.20
21214;DHT22;10764;50.850;2.904;2023-08-07T03:51:37;23.20;56.50
21214;DHT22;10764;50.850;2.904;2023-08-07T03:54:04;23.10;56.40
21214;DHT22;10764;50.850;2.904;2023-08-07T03:56:31;23.00;56.40
21214;DHT22;10764;50.850;2.904;2023-08-07T03:59:03;22.80;56.50
21214;DHT22;10764;50.850;2.904;2023-08-07T04:01:30;22.90;56.30
21214;DHT22;10764;50.850;2.904;2023-08-07T04:03:58;23.10;56.70
21214;DHT22;10764;50.850;2.904;2023-08-07T04:06:25;23.30;56.80
21214;DHT22;10764;50.850;2.904;2023-08-07T04:08:53;22.80;56.60
21214;DHT22;10764;50.850;2.904;2023-08-07T04:11:20;23.10;56.60
21214;DHT22;10764;50.850;2.904;2023-08-07T04:13:48;23.00;56.80
21214;DHT22;10764;50.850;2.904;2023-08-07T04:16:16;23.10;56.80
21214;DHT22;10764;50.850;2.904;2023-08-07T04:18:43;23.30;56.90
21214;DHT22;10764;50.850;2.904;2023-08-07T04:21:10;23.50;57.00
21214;DHT22;10764;50.850;2.904;2023-08-07T04:23:37;23.20;57.00
21214;DHT22;10764;50.850;2.904;2023-08-07T04:26:07;23.40;57.10
21214;DHT22;10764;50.850;2.904;2023-08-07T04:28:34;23.10;56.80
21214;DHT22;10764;50.850;2.904;2023-08-07T04:31:01;23.00;56.80
21214;DHT22;10764;50.850;2.904;2023-08-07T04:33:28;23.10;56.80
21214;DHT22;10764;50.850;2.904;2023-08-07T04:35:55;23.00;56.90
21214;DHT22;10764;50.850;2.904;2023-08-07T04:38:22;23.30;57.10
21214;DHT22;10764;50.850;2.904;2023-08-07T04:40:49;23.50;57.10
21214;DHT22;10764;50.850;2.904;2023-08-07T04:43:18;22.80;56.80
21214;DHT22;10764;50.850;2.904;2023-08-07T04:45:47;23.40;57.20
21214;DHT22;10764;50.850;2.904;2023-08-07T04:48:15;22.70;56.80
21214;DHT22;10764;50.850;2.904;2023-08-07T04:50:42;23.10;56.90
21214;DHT22;10764;50.850;2.904;2023-08-07T04:53:09;22.60;56.80
21214;DHT22;10764;50.850;2.904;2023-08-07T04:55:36;23.30;57.00
21214;DHT22;10764;50.850;2.904;2023-08-07T04:58:03;23.30;57.00
21214;DHT22;10764;50.850;2.904;2023-08-07T05:00:30;23.40;57.20
21214;DHT22;10764;50.850;2.904;2023-08-07T05:02:56;22.70;56.60
21214;DHT22;10764;50.850;2.904;2023-08-07T05:05:24;23.30;56.90
21214;DHT22;10764;50.850;2.904;2023-08-07T05:07:50;23.00;56.80
21214;DHT22;10764;50.850;2.904;2023-08-07T05:10:17;23.10;56.90
21214;DHT22;10764;50.850;2.904;2023-08-07T05:12:44;23.20;56.60
21214;DHT22;10764;50.850;2.904;2023-08-07T05:15:11;23.20;56.90
21214;DHT22;10764;50.850;2.904;2023-08-07T05:17:38;23.20;56.90
21214;DHT22;10764;50.850;2.904;2023-08-07T05:20:05;23.20;56.90
21214;DHT22;10764;50.850;2.904;2023-08-07T05:22:32;20.50;54.70
21214;DHT22;10764;50.850;2.904;2023-08-07T05:24:59;23.30;57.20
21214;DHT22;10764;50.850;2.904;2023-08-07T05:27:26;23.60;57.30
21214;DHT22;10764;50.850;2.904;2023-08-07T05:29:53;22.90;56.80
21214;DHT22;10764;50.850;2.904;2023-08-07T05:32:20;23.10;56.80
21214;DHT22;10764;50.850;2.904;2023-08-07T05:34:46;22.80;56.90
21214;DHT22;10764;50.850;2.904;2023-08-07T05:37:13;23.10;57.10
21214;DHT22;10764;50.850;2.904;2023-08-07T05:39:40;22.80;56.90
21214;DHT22;10764;50.850;2.904;2023-08-07T05:42:07;23.00;56.40
21214;DHT22;10764;50.850;2.904;2023-08-07T05:44:36;23.10;57.00
21214;DHT22;10764;50.850;2.904;2023-08-07T05:47:03;22.90;56.80
21214;DHT22;10764;50.850;2.904;2023-08-07T05:49:29;23.20;56.50
21214;DHT22;10764;50.850;2.904;2023-08-07T05:51:57;23.30;56.90
21214;DHT22;10764;50.850;2.904;2023-08-07T05:54:24;23.50;57.10
21214;DHT22;10764;50.850;2.904;2023-08-07T05:56:51;23.20;57.00
21214;DHT22;10764;50.850;2.904;2023-08-07T05:59:18;23.00;57.10
21214;DHT22;10764;50.850;2.904;2023-08-07T06:01:44;23.10;57.10
21214;DHT22;10764;50.850;2.904;2023-08-07T06:04:11;23.40;57.40
21214;DHT22;10764;50.850;2.904;2023-08-07T06:06:38;23.30;57.40
21214;DHT22;10764;50.850;2.904;2023-08-07T06:09:06;23.20;57.40
21214;DHT22;10764;50.850;2.904;2023-08-07T06:11:34;23.10;57.50
21214;DHT22;10764;50.850;2.904;2023-08-07T06:14:01;23.20;57.70
21214;DHT22;10764;50.850;2.904;2023-08-07T06:16:28;23.20;58.30
21214;DHT22;10764;50.850;2.904;2023-08-07T06:18:55;23.30;57.60
21214;DHT22;10764;50.850;2.904;2023-08-07T06:21:22;23.20;57.60
21214;DHT22;10764;50.850;2.904;2023-08-07T06:23:49;22.90;57.50
21214;DHT22;10764;50.850;2.904;2023-08-07T06:26:16;23.00;57.60
21214;DHT22;10764;50.850;2.904;2023-08-07T06:28:43;23.30;57.90
21214;DHT22;10764;50.850;2.904;2023-08-07T06:31:11;23.00;57.80
21214;DHT22;10764;50.850;2.904;2023-08-07T06:33:38;23.10;58.00
21214;DHT22;10764;50.850;2.904;2023-08-07T06:36:06;23.10;57.60
21214;DHT22;10764;50.850;2.904;2023-08-07T06:38:33;23.00;57.70
21214;DHT22;10764;50.850;2.904;2023-08-07T06:41:00;22.80;57.70
21214;DHT22;10764;50.850;2.904;2023-08-07T06:43:27;23.00;58.00
21214;DHT22;10764;50.850;2.904;2023-08-07T06:45:55;23.20;58.40
21214;DHT22;10764;50.850;2.904;2023-08-07T06:48:22;23.30;58.40
21214;DHT22;10764;50.850;2.904;2023-08-07T06:50:50;23.60;58.40
21214;DHT22;10764;50.850;2.904;2023-08-07T06:53:17;23.60;59.00
21214;DHT22;10764;50.850;2.904;2023-08-07T06:55:44;23.30;58.00
21214;DHT22;10764;50.850;2.904;2023-08-07T06:58:11;23.30;58.10
21214;DHT22;10764;50.850;2.904;2023-08-07T07:00:38;23.20;57.90
21214;DHT22;10764;50.850;2.904;2023-08-07T07:03:05;22.90;58.00
21214;DHT22;10764;50.850;2.904;2023-08-07T07:05:34;23.10;57.60
21214;DHT22;10764;50.850;2.904;2023-08-07T07:08:01;23.30;57.90
21214;DHT22;10764;50.850;2.904;2023-08-07T07:10:28;23.50;58.10
21214;DHT22;10764;50.850;2.904;2023-08-07T07:12:54;23.30;57.90
21214;DHT22;10764;50.850;2.904;2023-08-07T07:15:21;23.10;58.00
21214;DHT22;10764;50.850;2.904;2023-08-07T07:17:48;23.40;58.10
21214;DHT22;10764;50.850;2.904;2023-08-07T07:20:15;23.40;58.20
21214;DHT22;10764;50.850;2.904;2023-08-07T07:22:42;22.90;57.70
21214;DHT22;10764;50.850;2.904;2023-08-07T07:25:09;23.30;57.80
21214;DHT22;10764;50.850;2.904;2023-08-07T07:27:38;23.20;57.60
21214;DHT22;10764;50.850;2.904;2023-08-07T07:30:05;23.50;57.70
21214;DHT22;10764;50.850;2.904;2023-08-07T07:32:32;23.50;56.80
21214;DHT22;10764;50.850;2.904;2023-08-07T07:34:59;23.50;57.90
21214;DHT22;10764;50.850;2.904;2023-08-07T07:37:26;23.20;57.80
21214;DHT22;10764;50.850;2.904;2023-08-07T07:39:53;23.50;58.30
21214;DHT22;10764;50.850;2.904;2023-08-07T07:42:20;23.50;58.40
21214;DHT22;10764;50.850;2.904;2023-08-07T07:44:47;23.30;58.00
21214;DHT22;10764;50.850;2.904;2023-08-07T07:47:14;23.80;58.20
21214;DHT22;10764;50.850;2.904;2023-08-07T07:49:45;23.50;58.20
21214;DHT22;10764;50.850;2.904;2023-08-07T07:52:14;23.60;58.00
21214;DHT22;10764;50.850;2.904;2023-08-07T07:54:41;23.50;58.00
21214;DHT22;10764;50.850;2.904;2023-08-07T07:57:08;23.30;57.70
21214;DHT22;10764;50.850;2.904;2023-08-07T07:59:35;23.50;58.00
21214;DHT22;10764;50.850;2.904;2023-08-07T08:02:02;23.60;57.90
21214;DHT22;10764;50.850;2.904;2023-08-07T08:04:29;23.50;57.80
21214;DHT22;10764;50.850;2.904;2023-08-07T08:06:56;23.60;58.00
21214;DHT22;10764;50.850;2.904;2023-08-07T08:09:23;23.60;57.80
21214;DHT22;10764;50.850;2.904;2023-08-07T08:11:49;23.30;57.50
21214;DHT22;10764;50.850;2.904;2023-08-07T08:14:16;23.60;57.40
21214;DHT22;10764;50.850;2.904;2023-08-07T08:16:43;23.60;57.40
21214;DHT22;10764;50.850;2.904;2023-08-07T08:19:10;23.80;57.80
21214;DHT22;10764;50.850;2.904;2023-08-07T08:21:37;23.50;57.30
21214;DHT22;10764;50.850;2.904;2023-08-07T08:24:07;23.60;57.40
21214;DHT22;10764;50.850;2.904;2023-08-07T08:26:34;23.50;57.60
21214;DHT22;10764;50.850;2.904;2023-08-07T08:29:01;23.60;57.50
21214;DHT22;10764;50.850;2.904;2023-08-07T08:31:28;23.70;57.70
21214;DHT22;10764;50.850;2.904;2023-08-07T08:33:55;23.60;56.50
21214;DHT22;10764;50.850;2.904;2023-08-07T08:36:22;23.80;58.30
21214;DHT22;10764;50.850;2.904;2023-08-07T08:38:49;23.50;57.30
21214;DHT22;10764;50.850;2.904;2023-08-07T08:41:18;23.80;57.70
21214;DHT22;10764;50.850;2.904;2023-08-07T08:43:46;23.60;57.40
21214;DHT22;10764;50.850;2.904;2023-08-07T08:46:19;23.30;56.30
21214;DHT22;10764;50.850;2.904;2023-08-07T08:48:50;23.70;57.50
21214;DHT22;10764;50.850;2.904;2023-08-07T08:51:19;23.50;57.40
21214;DHT22;10764;50.850;2.904;2023-08-07T08:53:48;23.80;57.40
21214;DHT22;10764;50.850;2.904;2023-08-07T08:56:16;23.90;57.40
21214;DHT22;10764;50.850;2.904;2023-08-07T08:58:43;23.60;57.00
21214;DHT22;10764;50.850;2.904;2023-08-07T09:01:11;23.70;56.80
21214;DHT22;10764;50.850;2.904;2023-08-07T09:03:39;23.90;57.10
21214;DHT22;10764;50.850;2.904;2023-08-07T09:06:06;23.70;57.20
21214;DHT22;10764;50.850;2.904;2023-08-07T09:08:34;23.70;57.10
21214;DHT22;10764;50.850;2.904;2023-08-07T09:11:02;23.40;56.70
21214;DHT22;10764;50.850;2.904;2023-08-07T09:13:30;23.70;57.00
21214;DHT22;10764;50.850;2.904;2023-08-07T09:16:00;23.60;56.80
21214;DHT22;10764;50.850;2.904;2023-08-07T09:18:28;23.80;56.80
21214;DHT22;10764;50.850;2.904;2023-08-07T09:20:56;24.00;56.90
21214;DHT22;10764;50.850;2.904;2023-08-07T09:23:24;24.10;57.10
21214;DHT22;10764;50.850;2.904;2023-08-07T09:26:04;23.70;56.70
21214;DHT22;10764;50.850;2.904;2023-08-07T09:28:32;23.70;57.10
21214;DHT22;10764;50.850;2.904;2023-08-07T09:31:00;23.80;56.10
21214;DHT22;10764;50.850;2.904;2023-08-07T09:33:29;23.70;57.50
21214;DHT22;10764;50.850;2.904;2023-08-07T09:36:01;23.60;57.40
21214;DHT22;10764;50.850;2.904;2023-08-07T09:38:31;23.90;56.50
21214;DHT22;10764;50.850;2.904;2023-08-07T09:41:02;23.50;55.00
21214;DHT22;10764;50.850;2.904;2023-08-07T09:43:36;23.70;56.40
21214;DHT22;10764;50.850;2.904;2023-08-07T09:46:07;23.70;56.30
21214;DHT22;10764;50.850;2.904;2023-08-07T09:48:42;23.90;56.40
21214;DHT22;10764;50.850;2.904;2023-08-07T09:51:09;23.60;56.10
21214;DHT22;10764;50.850;2.904;2023-08-07T09:53:37;23.70;56.20
21214;DHT22;10764;50.850;2.904;2023-08-07T09:56:04;23.70;56.20
21214;DHT22;10764;50.850;2.904;2023-08-07T09:58:31;23.70;56.10
21214;DHT22;10764;50.850;2.904;2023-08-07T10:01:03;23.80;56.10
21214;DHT22;10764;50.850;2.904;2023-08-07T10:03:31;23.70;56.00
21214;DHT22;10764;50.850;2.904;2023-08-07T10:05:59;23.80;56.10
21214;DHT22;10764;50.850;2.904;2023-08-07T10:08:26;23.70;55.90
21214;DHT22;10764;50.850;2.904;2023-08-07T10:10:54;23.80;55.80
21214;DHT22;10764;50.850;2.904;2023-08-07T10:13:22;23.90;56.00
21214;DHT22;10764;50.850;2.904;2023-08-07T10:16:05;24.00;56.00
21214;DHT22;10764;50.850;2.904;2023-08-07T10:18:32;24.00;56.50
21214;DHT22;10764;50.850;2.904;2023-08-07T10:21:02;23.70;56.30
21214;DHT22;10764;50.850;2.904;2023-08-07T10:23:29;23.60;55.50
21214;DHT22;10764;50.850;2.904;2023-08-07T10:25:56;23.60;55.50
21214;DHT22;10764;50.850;2.904;2023-08-07T10:28:24;23.60;56.20
21214;DHT22;10764;50.850;2.904;2023-08-07T10:30:55;24.00;55.60
21214;DHT22;10764;50.850;2.904;2023-08-07T10:33:23;23.80;55.20
21214;DHT22;10764;50.850;2.904;2023-08-07T10:35:52;23.80;55.10
21214;DHT22;10764;50.850;2.904;2023-08-07T10:38:22;23.90;56.00
21214;DHT22;10764;50.850;2.904;2023-08-07T10:41:08;23.70;55.20
21214;DHT22;10764;50.850;2.904;2023-08-07T10:43:39;23.90;52.90
21214;DHT22;10764;50.850;2.904;2023-08-07T10:46:10;23.80;55.30
21214;DHT22;10764;50.850;2.904;2023-08-07T10:48:42;23.90;55.30
21214;DHT22;10764;50.850;2.904;2023-08-07T10:51:15;23.70;55.10
21214;DHT22;10764;50.850;2.904;2023-08-07T10:53:44;23.90;55.10
21214;DHT22;10764;50.850;2.904;2023-08-07T10:56:17;23.80;55.00
21214;DHT22;10764;50.850;2.904;2023-08-07T10:58:50;23.90;55.00
21214;DHT22;10764;50.850;2.904;2023-08-07T11:06:18;23.90;54.70
21214;DHT22;10764;50.850;2.904;2023-08-07T11:08:48;24.10;55.00
21214;DHT22;10764;50.850;2.904;2023-08-07T11:11:15;23.90;54.70
21214;DHT22;10764;50.850;2.904;2023-08-07T11:13:42;24.00;55.70
21214;DHT22;10764;50.850;2.904;2023-08-07T11:16:09;24.10;55.00
21214;DHT22;10764;50.850;2.904;2023-08-07T11:18:37;24.00;54.80
21214;DHT22;10764;50.850;2.904;2023-08-07T11:21:08;23.70;54.70
21214;DHT22;10764;50.850;2.904;2023-08-07T11:23:40;24.10;55.00
21214;DHT22;10764;50.850;2.904;2023-08-07T11:26:10;23.90;52.80
21214;DHT22;10764;50.850;2.904;2023-08-07T11:28:37;23.70;54.60
21214;DHT22;10764;50.850;2.904;2023-08-07T11:31:04;23.60;54.50
21214;DHT22;10764;50.850;2.904;2023-08-07T11:33:31;23.80;54.60
21214;DHT22;10764;50.850;2.904;2023-08-07T11:35:59;23.70;55.10
21214;DHT22;10764;50.850;2.904;2023-08-07T11:40:58;23.60;55.30
21214;DHT22;10764;50.850;2.904;2023-08-07T11:43:30;23.90;55.40
21214;DHT22;10764;50.850;2.904;2023-08-07T11:45:59;23.60;56.40
21214;DHT22;10764;50.850;2.904;2023-08-07T11:48:30;24.00;56.10
21214;DHT22;10764;50.850;2.904;2023-08-07T11:50:58;24.10;56.20
21214;DHT22;10764;50.850;2.904;2023-08-07T11:53:27;21.20;53.90
21214;DHT22;10764;50.850;2.904;2023-08-07T11:55:55;24.10;56.30
21214;DHT22;10764;50.850;2.904;2023-08-07T11:58:25;24.40;56.00
21214;DHT22;10764;50.850;2.904;2023-08-07T12:00:53;24.10;55.50
21214;DHT22;10764;50.850;2.904;2023-08-07T12:03:25;24.60;55.50
21214;DHT22;10764;50.850;2.904;2023-08-07T12:05:58;24.30;55.20
21214;DHT22;10764;50.850;2.904;2023-08-07T12:08:38;24.50;52.50
21214;DHT22;10764;50.850;2.904;2023-08-07T12:11:13;24.20;52.60
21214;DHT22;10764;50.850;2.904;2023-08-07T12:13:42;24.30;52.40
21214;DHT22;10764;50.850;2.904;2023-08-07T12:16:10;24.40;57.70
21214;DHT22;10764;50.850;2.904;2023-08-07T12:18:49;24.40;54.60
21214;DHT22;10764;50.850;2.904;2023-08-07T12:21:18;24.20;55.20
21214;DHT22;10764;50.850;2.904;2023-08-07T12:23:47;24.70;55.70
21214;DHT22;10764;50.850;2.904;2023-08-07T12:26:17;24.10;53.90
21214;DHT22;10764;50.850;2.904;2023-08-07T12:28:44;24.20;54.90
21214;DHT22;10764;50.850;2.904;2023-08-07T12:31:11;24.40;54.80
21214;DHT22;10764;50.850;2.904;2023-08-07T12:33:40;24.20;55.50
21214;DHT22;10764;50.850;2.904;2023-08-07T12:36:11;28.00;61.30
21214;DHT22;10764;50.850;2.904;2023-08-07T12:38:43;24.30;55.00
21214;DHT22;10764;50.850;2.904;2023-08-07T12:41:10;24.00;56.00
21214;DHT22;10764;50.850;2.904;2023-08-07T12:43:57;24.10;55.50
21214;DHT22;10764;50.850;2.904;2023-08-07T12:46:26;24.50;55.80
21214;DHT22;10764;50.850;2.904;2023-08-07T12:48:56;24.20;56.80
21214;DHT22;10764;50.850;2.904;2023-08-07T12:51:23;24.30;55.80
21214;DHT22;10764;50.850;2.904;2023-08-07T12:53:49;24.10;56.70
21214;DHT22;10764;50.850;2.904;2023-08-07T12:56:18;24.20;55.40
21214;DHT22;10764;50.850;2.904;2023-08-07T12:58:45;24.20;56.60
21214;DHT22;10764;50.850;2.904;2023-08-07T13:01:14;24.10;56.50
21214;DHT22;10764;50.850;2.904;2023-08-07T13:03:41;24.20;56.70
21214;DHT22;10764;50.850;2.904;2023-08-07T13:06:08;24.30;55.80
21214;DHT22;10764;50.850;2.904;2023-08-07T13:08:45;24.50;54.60
21214;DHT22;10764;50.850;2.904;2023-08-07T13:11:17;24.50;55.00
21214;DHT22;10764;50.850;2.904;2023-08-07T13:13:45;23.70;54.90
21214;DHT22;10764;50.850;2.904;2023-08-07T13:16:19;24.10;52.00
21214;DHT22;10764;50.850;2.904;2023-08-07T13:18:46;24.80;55.20
21214;DHT22;10764;50.850;2.904;2023-08-07T13:21:13;24.10;56.20
21214;DHT22;10764;50.850;2.904;2023-08-07T13:55:42;24.00;63.20
21214;DHT22;10764;50.850;2.904;2023-08-07T14:00:36;24.60;63.50
21214;DHT22;10764;50.850;2.904;2023-08-07T14:12:53;24.00;63.50
21214;DHT22;10764;50.850;2.904;2023-08-07T14:15:19;24.00;62.90
21214;DHT22;10764;50.850;2.904;2023-08-07T14:17:46;23.70;62.60
21214;DHT22;10764;50.850;2.904;2023-08-07T14:22:40;24.30;62.90
21214;DHT22;10764;50.850;2.904;2023-08-07T14:30:03;23.90;63.40
21214;DHT22;10764;50.850;2.904;2023-08-07T14:37:24;24.30;63.10
21214;DHT22;10764;50.850;2.904;2023-08-07T14:42:18;23.90;62.40
21214;DHT22;10764;50.850;2.904;2023-08-07T14:44:45;24.00;61.70
21214;DHT22;10764;50.850;2.904;2023-08-07T14:47:12;23.80;61.30
21214;DHT22;10764;50.850;2.904;2023-08-07T14:49:39;24.00;61.30
21214;DHT22;10764;50.850;2.904;2023-08-07T14:52:06;23.70;61.00
21214;DHT22;10764;50.850;2.904;2023-08-07T14:54:34;24.20;61.00
21214;DHT22;10764;50.850;2.904;2023-08-07T14:57:00;24.20;60.60
21214;DHT22;10764;50.850;2.904;2023-08-07T14:59:27;24.10;60.30
21214;DHT22;10764;50.850;2.904;2023-08-07T15:01:54;23.90;60.10
21214;DHT22;10764;50.850;2.904;2023-08-07T15:04:22;24.40;60.40
21214;DHT22;10764;50.850;2.904;2023-08-07T15:09:17;24.20;60.60
21214;DHT22;10764;50.850;2.904;2023-08-07T15:11:46;24.40;60.60
21214;DHT22;10764;50.850;2.904;2023-08-07T15:14:13;24.30;60.50
21214;DHT22;10764;50.850;2.904;2023-08-07T15:16:40;24.60;60.50
21214;DHT22;10764;50.850;2.904;2023-08-07T15:19:08;23.90;60.10
21214;DHT22;10764;50.850;2.904;2023-08-07T15:24:02;24.30;60.30
21214;DHT22;10764;50.850;2.904;2023-08-07T15:26:28;24.60;60.20
21214;DHT22;10764;50.850;2.904;2023-08-07T15:31:23;24.60;60.50
21214;DHT22;10764;50.850;2.904;2023-08-07T15:33:50;24.70;60.50
21214;DHT22;10764;50.850;2.904;2023-08-07T15:38:46;24.70;57.10
21214;DHT22;10764;50.850;2.904;2023-08-07T15:41:13;24.60;59.70
21214;DHT22;10764;50.850;2.904;2023-08-07T15:43:40;24.10;59.70
21214;DHT22;10764;50.850;2.904;2023-08-07T15:46:07;24.30;61.10
21214;DHT22;10764;50.850;2.904;2023-08-07T15:51:02;24.10;60.70
21214;DHT22;10764;50.850;2.904;2023-08-07T15:58:25;24.00;59.60
21214;DHT22;10764;50.850;2.904;2023-08-07T16:00:51;24.10;60.10
21214;DHT22;10764;50.850;2.904;2023-08-07T16:03:18;24.00;59.60
21214;DHT22;10764;50.850;2.904;2023-08-07T16:05:49;23.80;61.20
21214;DHT22;10764;50.850;2.904;2023-08-07T16:08:15;24.00;62.00
21214;DHT22;10764;50.850;2.904;2023-08-07T16:10:42;24.10;61.10
21214;DHT22;10764;50.850;2.904;2023-08-07T16:13:09;23.90;61.50
21214;DHT22;10764;50.850;2.904;2023-08-07T16:15:36;23.90;61.20
21214;DHT22;10764;50.850;2.904;2023-08-07T16:27:53;24.00;61.70
21214;DHT22;10764;50.850;2.904;2023-08-07T16:30:20;23.90;61.60
21214;DHT22;10764;50.850;2.904;2023-08-07T16:45:07;24.00;60.50
21214;DHT22;10764;50.850;2.904;2023-08-07T16:47:33;23.80;60.50
21214;DHT22;10764;50.850;2.904;2023-08-07T16:50:00;23.80;61.30
21214;DHT22;10764;50.850;2.904;2023-08-07T16:52:27;24.20;61.20
21214;DHT22;10764;50.850;2.904;2023-08-07T16:54:54;24.00;61.00
21214;DHT22;10764;50.850;2.904;2023-08-07T16:59:48;23.90;57.80
21214;DHT22;10764;50.850;2.904;2023-08-07T17:02:15;23.60;61.20
21214;DHT22;10764;50.850;2.904;2023-08-07T17:04:42;23.80;60.90
21214;DHT22;10764;50.850;2.904;2023-08-07T17:07:09;23.70;60.90
21214;DHT22;10764;50.850;2.904;2023-08-07T17:09:37;23.80;60.20
21214;DHT22;10764;50.850;2.904;2023-08-07T17:14:31;23.80;60.30
21214;DHT22;10764;50.850;2.904;2023-08-07T17:16:58;23.80;60.60
21214;DHT22;10764;50.850;2.904;2023-08-07T17:19:25;24.10;60.40
21214;DHT22;10764;50.850;2.904;2023-08-07T17:21:52;24.10;60.70
21214;DHT22;10764;50.850;2.904;2023-08-07T17:24:19;23.60;59.70
21214;DHT22;10764;50.850;2.904;2023-08-07T17:26:46;24.20;60.20
21214;DHT22;10764;50.850;2.904;2023-08-07T17:29:13;23.90;60.40
21214;DHT22;10764;50.850;2.904;2023-08-07T17:31:39;23.80;60.20